sensor_id;sensor_type;location;lat;lon;timestamp;P1;durP1;ratioP1;P2;durP2;ratioP2
44426;SDS011;30133;47.866;-4.222;2023-05-07T00:02:12;2.03;;;1.20;;
44426;SDS011;30133;47.866;-4.222;2023-05-07T00:04:39;1.85;;;1.60;;
44426;SDS011;30133;47.866;-4.222;2023-05-07T00:07:05;3.53;;;1.60;;
44426;SDS011;30133;47.866;-4.222;2023-05-07T00:09:32;4.70;;;1.80;;
44426;SDS011;30133;47.866;-4.222;2023-05-07T00:11:58;2.70;;;1.42;;
44426;SDS011;30133;47.866;-4.222;2023-05-07T00:14:24;2.45;;;1.30;;
44426;SDS011;30133;47.866;-4.222;2023-05-07T00:16:51;2.92;;;1.33;;
44426;SDS011;30133;47.866;-4.222;2023-05-07T00:19:17;3.40;;;1.38;;
44426;SDS011;30133;47.866;-4.222;2023-05-07T00:21:43;3.28;;;1.60;;
44426;SDS011;30133;47.866;-4.222;2023-05-07T00:24:10;2.42;;;1.50;;
44426;SDS011;30133;47.866;-4.222;2023-05-07T00:26:36;1.67;;;1.25;;
44426;SDS011;30133;47.866;-4.222;2023-05-07T00:29:02;2.72;;;1.88;;
44426;SDS011;30133;47.866;-4.222;2023-05-07T00:31:29;3.25;;;1.58;;
44426;SDS011;30133;47.866;-4.222;2023-05-07T00:33:55;2.35;;;1.30;;
44426;SDS011;30133;47.866;-4.222;2023-05-07T00:36:21;1.67;;;1.40;;
44426;SDS011;30133;47.866;-4.222;2023-05-07T00:38:48;3.83;;;1.60;;
44426;SDS011;30133;47.866;-4.222;2023-05-07T00:41:15;4.30;;;1.50;;
44426;SDS011;30133;47.866;-4.222;2023-05-07T00:43:41;2.25;;;1.38;;
44426;SDS011;30133;47.866;-4.222;2023-05-07T00:46:07;3.47;;;1.55;;
44426;SDS011;30133;47.866;-4.222;2023-05-07T00:48:34;2.22;;;1.42;;
44426;SDS011;30133;47.866;-4.222;2023-05-07T00:51:00;2.83;;;1.48;;
44426;SDS011;30133;47.866;-4.222;2023-05-07T00:53:26;2.22;;;1.30;;
44426;SDS011;30133;47.866;-4.222;2023-05-07T00:55:53;1.90;;;1.27;;
44426;SDS011;30133;47.866;-4.222;2023-05-07T00:58:19;3.35;;;1.58;;
44426;SDS011;30133;47.866;-4.222;2023-05-07T01:00:47;2.33;;;1.45;;
44426;SDS011;30133;47.866;-4.222;2023-05-07T01:03:13;3.20;;;1.10;;
44426;SDS011;30133;47.866;-4.222;2023-05-07T01:05:39;2.30;;;1.40;;
44426;SDS011;30133;47.866;-4.222;2023-05-07T01:08:07;1.65;;;1.10;;
44426;SDS011;30133;47.866;-4.222;2023-05-07T01:10:33;2.95;;;1.42;;
44426;SDS011;30133;47.866;-4.222;2023-05-07T01:12:59;1.58;;;1.20;;
44426;SDS011;30133;47.866;-4.222;2023-05-07T01:15:26;1.92;;;1.63;;
44426;SDS011;30133;47.866;-4.222;2023-05-07T01:17:53;2.53;;;1.15;;
44426;SDS011;30133;47.866;-4.222;2023-05-07T01:20:19;2.35;;;1.15;;
44426;SDS011;30133;47.866;-4.222;2023-05-07T01:22:46;1.92;;;1.50;;
44426;SDS011;30133;47.866;-4.222;2023-05-07T01:25:12;1.92;;;1.25;;
44426;SDS011;30133;47.866;-4.222;2023-05-07T01:27:41;2.65;;;1.15;;
44426;SDS011;30133;47.866;-4.222;2023-05-07T01:30:07;2.95;;;1.30;;
44426;SDS011;30133;47.866;-4.222;2023-05-07T01:32:45;3.38;;;1.67;;
44426;SDS011;30133;47.866;-4.222;2023-05-07T01:35:36;3.50;;;1.15;;
44426;SDS011;30133;47.866;-4.222;2023-05-07T01:38:04;2.75;;;1.50;;
44426;SDS011;30133;47.866;-4.222;2023-05-07T01:40:31;1.52;;;1.27;;
44426;SDS011;30133;47.866;-4.222;2023-05-07T01:42:58;2.75;;;1.38;;
44426;SDS011;30133;47.866;-4.222;2023-05-07T01:45:24;2.10;;;1.58;;
44426;SDS011;30133;47.866;-4.222;2023-05-07T01:47:51;1.65;;;1.17;;
44426;SDS011;30133;47.866;-4.222;2023-05-07T01:50:18;2.30;;;1.58;;
44426;SDS011;30133;47.866;-4.222;2023-05-07T01:52:45;2.47;;;1.40;;
44426;SDS011;30133;47.866;-4.222;2023-05-07T01:55:12;2.53;;;1.50;;
44426;SDS011;30133;47.866;-4.222;2023-05-07T01:57:38;2.78;;;1.40;;
44426;SDS011;30133;47.866;-4.222;2023-05-07T02:00:05;6.35;;;1.58;;
44426;SDS011;30133;47.866;-4.222;2023-05-07T02:02:33;2.17;;;1.23;;
44426;SDS011;30133;47.866;-4.222;2023-05-07T02:05:00;2.30;;;1.42;;
44426;SDS011;30133;47.866;-4.222;2023-05-07T02:07:27;1.70;;;1.35;;
44426;SDS011;30133;47.866;-4.222;2023-05-07T02:09:54;2.42;;;1.25;;
44426;SDS011;30133;47.866;-4.222;2023-05-07T02:12:20;2.97;;;1.45;;
44426;SDS011;30133;47.866;-4.222;2023-05-07T02:14:47;1.48;;;1.20;;
44426;SDS011;30133;47.866;-4.222;2023-05-07T02:17:14;2.08;;;1.15;;
44426;SDS011;30133;47.866;-4.222;2023-05-07T02:19:40;1.83;;;0.95;;
44426;SDS011;30133;47.866;-4.222;2023-05-07T02:22:07;1.92;;;1.13;;
44426;SDS011;30133;47.866;-4.222;2023-05-07T02:24:34;2.28;;;1.38;;
44426;SDS011;30133;47.866;-4.222;2023-05-07T02:27:00;3.67;;;1.38;;
44426;SDS011;30133;47.866;-4.222;2023-05-07T02:29:28;2.72;;;1.63;;
44426;SDS011;30133;47.866;-4.222;2023-05-07T02:31:54;2.25;;;1.40;;
44426;SDS011;30133;47.866;-4.222;2023-05-07T02:34:21;1.67;;;1.42;;
44426;SDS011;30133;47.866;-4.222;2023-05-07T02:36:47;2.17;;;1.30;;
44426;SDS011;30133;47.866;-4.222;2023-05-07T02:39:14;4.43;;;1.60;;
44426;SDS011;30133;47.866;-4.222;2023-05-07T02:41:40;1.90;;;1.25;;
44426;SDS011;30133;47.866;-4.222;2023-05-07T02:44:07;2.22;;;1.08;;
44426;SDS011;30133;47.866;-4.222;2023-05-07T02:46:34;2.35;;;1.08;;
44426;SDS011;30133;47.866;-4.222;2023-05-07T02:49:00;2.28;;;1.40;;
44426;SDS011;30133;47.866;-4.222;2023-05-07T02:51:26;1.80;;;1.40;;
44426;SDS011;30133;47.866;-4.222;2023-05-07T02:53:53;1.25;;;0.90;;
44426;SDS011;30133;47.866;-4.222;2023-05-07T02:56:26;1.95;;;1.08;;
44426;SDS011;30133;47.866;-4.222;2023-05-07T02:58:52;2.35;;;1.10;;
44426;SDS011;30133;47.866;-4.222;2023-05-07T03:01:19;1.92;;;1.23;;
44426;SDS011;30133;47.866;-4.222;2023-05-07T03:03:45;1.30;;;1.05;;
44426;SDS011;30133;47.866;-4.222;2023-05-07T03:06:12;1.27;;;1.17;;
44426;SDS011;30133;47.866;-4.222;2023-05-07T03:08:38;1.25;;;1.00;;
44426;SDS011;30133;47.866;-4.222;2023-05-07T03:11:04;1.50;;;1.40;;
44426;SDS011;30133;47.866;-4.222;2023-05-07T03:13:31;1.63;;;1.27;;
44426;SDS011;30133;47.866;-4.222;2023-05-07T03:15:57;1.95;;;1.58;;
44426;SDS011;30133;47.866;-4.222;2023-05-07T03:18:23;2.65;;;1.35;;
44426;SDS011;30133;47.866;-4.222;2023-05-07T03:20:49;2.92;;;1.33;;
44426;SDS011;30133;47.866;-4.222;2023-05-07T03:23:16;1.58;;;1.23;;
44426;SDS011;30133;47.866;-4.222;2023-05-07T03:25:42;1.20;;;1.00;;
44426;SDS011;30133;47.866;-4.222;2023-05-07T03:28:09;2.20;;;1.20;;
44426;SDS011;30133;47.866;-4.222;2023-05-07T03:30:35;1.45;;;1.20;;
44426;SDS011;30133;47.866;-4.222;2023-05-07T03:33:01;1.75;;;1.20;;
44426;SDS011;30133;47.866;-4.222;2023-05-07T03:35:28;2.08;;;1.40;;
44426;SDS011;30133;47.866;-4.222;2023-05-07T03:37:54;1.27;;;1.17;;
44426;SDS011;30133;47.866;-4.222;2023-05-07T03:40:20;2.15;;;1.63;;
44426;SDS011;30133;47.866;-4.222;2023-05-07T03:42:47;1.40;;;0.85;;
44426;SDS011;30133;47.866;-4.222;2023-05-07T03:45:13;1.17;;;1.08;;
44426;SDS011;30133;47.866;-4.222;2023-05-07T03:47:40;2.42;;;1.15;;
44426;SDS011;30133;47.866;-4.222;2023-05-07T03:50:06;1.95;;;1.25;;
44426;SDS011;30133;47.866;-4.222;2023-05-07T03:52:33;2.10;;;1.08;;
44426;SDS011;30133;47.866;-4.222;2023-05-07T03:55:00;2.13;;;1.10;;
44426;SDS011;30133;47.866;-4.222;2023-05-07T03:57:26;2.28;;;1.20;;
44426;SDS011;30133;47.866;-4.222;2023-05-07T03:59:52;1.15;;;1.02;;
44426;SDS011;30133;47.866;-4.222;2023-05-07T04:02:19;1.75;;;1.23;;
44426;SDS011;30133;47.866;-4.222;2023-05-07T04:04:45;1.25;;;1.08;;
44426;SDS011;30133;47.866;-4.222;2023-05-07T04:07:13;2.08;;;1.30;;
44426;SDS011;30133;47.866;-4.222;2023-05-07T04:09:40;2.67;;;1.40;;
44426;SDS011;30133;47.866;-4.222;2023-05-07T04:12:06;1.63;;;1.10;;
44426;SDS011;30133;47.866;-4.222;2023-05-07T04:14:32;1.48;;;1.08;;
44426;SDS011;30133;47.866;-4.222;2023-05-07T04:16:59;1.30;;;1.10;;
44426;SDS011;30133;47.866;-4.222;2023-05-07T04:19:25;3.00;;;1.65;;
44426;SDS011;30133;47.866;-4.222;2023-05-07T04:21:52;1.38;;;1.10;;
44426;SDS011;30133;47.866;-4.222;2023-05-07T04:24:18;1.45;;;1.05;;
44426;SDS011;30133;47.866;-4.222;2023-05-07T04:26:45;2.17;;;1.17;;
44426;SDS011;30133;47.866;-4.222;2023-05-07T04:29:11;2.08;;;1.48;;
44426;SDS011;30133;47.866;-4.222;2023-05-07T04:31:37;1.70;;;1.20;;
44426;SDS011;30133;47.866;-4.222;2023-05-07T04:34:04;2.78;;;1.33;;
44426;SDS011;30133;47.866;-4.222;2023-05-07T04:36:30;1.60;;;1.33;;
44426;SDS011;30133;47.866;-4.222;2023-05-07T04:38:59;1.73;;;1.08;;
44426;SDS011;30133;47.866;-4.222;2023-05-07T04:41:27;2.67;;;1.13;;
44426;SDS011;30133;47.866;-4.222;2023-05-07T04:43:53;1.38;;;1.00;;
44426;SDS011;30133;47.866;-4.222;2023-05-07T04:46:20;1.40;;;1.05;;
44426;SDS011;30133;47.866;-4.222;2023-05-07T04:48:46;2.05;;;1.00;;
44426;SDS011;30133;47.866;-4.222;2023-05-07T04:51:13;1.27;;;0.93;;
44426;SDS011;30133;47.866;-4.222;2023-05-07T04:53:39;2.95;;;0.77;;
44426;SDS011;30133;47.866;-4.222;2023-05-07T04:56:06;1.50;;;1.15;;
44426;SDS011;30133;47.866;-4.222;2023-05-07T04:58:32;1.52;;;1.27;;
44426;SDS011;30133;47.866;-4.222;2023-05-07T05:00:59;1.00;;;0.90;;
44426;SDS011;30133;47.866;-4.222;2023-05-07T05:03:25;1.33;;;0.90;;
44426;SDS011;30133;47.866;-4.222;2023-05-07T05:05:52;1.50;;;0.80;;
44426;SDS011;30133;47.866;-4.222;2023-05-07T05:08:18;1.10;;;0.95;;
44426;SDS011;30133;47.866;-4.222;2023-05-07T05:10:45;1.30;;;1.13;;
44426;SDS011;30133;47.866;-4.222;2023-05-07T05:13:13;1.10;;;0.90;;
44426;SDS011;30133;47.866;-4.222;2023-05-07T05:15:39;1.80;;;1.48;;
44426;SDS011;30133;47.866;-4.222;2023-05-07T05:18:06;1.60;;;1.10;;
44426;SDS011;30133;47.866;-4.222;2023-05-07T05:20:32;1.38;;;0.90;;
44426;SDS011;30133;47.866;-4.222;2023-05-07T05:22:58;1.52;;;1.05;;
44426;SDS011;30133;47.866;-4.222;2023-05-07T05:25:25;1.15;;;0.80;;
44426;SDS011;30133;47.866;-4.222;2023-05-07T05:27:52;2.03;;;1.05;;
44426;SDS011;30133;47.866;-4.222;2023-05-07T05:30:18;1.55;;;1.10;;
44426;SDS011;30133;47.866;-4.222;2023-05-07T05:32:45;0.90;;;0.80;;
44426;SDS011;30133;47.866;-4.222;2023-05-07T05:35:11;1.38;;;0.88;;
44426;SDS011;30133;47.866;-4.222;2023-05-07T05:37:37;1.52;;;1.23;;
44426;SDS011;30133;47.866;-4.222;2023-05-07T05:40:04;2.42;;;1.00;;
44426;SDS011;30133;47.866;-4.222;2023-05-07T05:42:31;1.50;;;1.10;;
44426;SDS011;30133;47.866;-4.222;2023-05-07T05:44:57;3.28;;;1.30;;
44426;SDS011;30133;47.866;-4.222;2023-05-07T05:47:23;2.25;;;1.02;;
44426;SDS011;30133;47.866;-4.222;2023-05-07T05:49:50;1.23;;;0.90;;
44426;SDS011;30133;47.866;-4.222;2023-05-07T05:52:16;1.67;;;1.17;;
44426;SDS011;30133;47.866;-4.222;2023-05-07T05:54:42;1.58;;;1.17;;
44426;SDS011;30133;47.866;-4.222;2023-05-07T05:57:09;1.33;;;0.98;;
44426;SDS011;30133;47.866;-4.222;2023-05-07T05:59:35;1.27;;;1.02;;
44426;SDS011;30133;47.866;-4.222;2023-05-07T06:02:02;1.40;;;1.10;;
44426;SDS011;30133;47.866;-4.222;2023-05-07T06:04:28;1.02;;;0.93;;
44426;SDS011;30133;47.866;-4.222;2023-05-07T06:06:54;1.52;;;1.27;;
44426;SDS011;30133;47.866;-4.222;2023-05-07T06:09:21;1.48;;;1.00;;
44426;SDS011;30133;47.866;-4.222;2023-05-07T06:11:48;1.55;;;0.80;;
44426;SDS011;30133;47.866;-4.222;2023-05-07T06:14:14;2.90;;;1.15;;
44426;SDS011;30133;47.866;-4.222;2023-05-07T06:16:41;1.38;;;1.00;;
44426;SDS011;30133;47.866;-4.222;2023-05-07T06:19:07;1.30;;;1.08;;
44426;SDS011;30133;47.866;-4.222;2023-05-07T06:21:33;0.82;;;0.77;;
44426;SDS011;30133;47.866;-4.222;2023-05-07T06:24:00;1.70;;;1.27;;
44426;SDS011;30133;47.866;-4.222;2023-05-07T06:26:26;1.45;;;0.95;;
44426;SDS011;30133;47.866;-4.222;2023-05-07T06:28:52;1.23;;;1.13;;
44426;SDS011;30133;47.866;-4.222;2023-05-07T06:31:19;1.10;;;0.95;;
44426;SDS011;30133;47.866;-4.222;2023-05-07T06:33:46;1.33;;;0.88;;
44426;SDS011;30133;47.866;-4.222;2023-05-07T06:36:12;1.00;;;0.80;;
44426;SDS011;30133;47.866;-4.222;2023-05-07T06:38:39;2.40;;;0.98;;
44426;SDS011;30133;47.866;-4.222;2023-05-07T06:41:05;1.48;;;1.02;;
44426;SDS011;30133;47.866;-4.222;2023-05-07T06:43:32;1.15;;;0.93;;
44426;SDS011;30133;47.866;-4.222;2023-05-07T06:45:58;3.85;;;1.20;;
44426;SDS011;30133;47.866;-4.222;2023-05-07T06:48:25;0.80;;;0.80;;
44426;SDS011;30133;47.866;-4.222;2023-05-07T06:50:51;2.20;;;1.48;;
44426;SDS011;30133;47.866;-4.222;2023-05-07T06:53:20;2.00;;;0.98;;
44426;SDS011;30133;47.866;-4.222;2023-05-07T06:55:46;0.88;;;0.85;;
44426;SDS011;30133;47.866;-4.222;2023-05-07T06:58:12;0.73;;;0.68;;
44426;SDS011;30133;47.866;-4.222;2023-05-07T07:00:38;1.48;;;0.77;;
44426;SDS011;30133;47.866;-4.222;2023-05-07T07:03:06;3.08;;;0.90;;
44426;SDS011;30133;47.866;-4.222;2023-05-07T07:05:32;1.23;;;0.90;;
44426;SDS011;30133;47.866;-4.222;2023-05-07T07:07:58;1.00;;;0.90;;
44426;SDS011;30133;47.866;-4.222;2023-05-07T07:10:25;1.50;;;0.95;;
44426;SDS011;30133;47.866;-4.222;2023-05-07T07:12:51;1.33;;;1.23;;
44426;SDS011;30133;47.866;-4.222;2023-05-07T07:15:20;1.77;;;1.05;;
44426;SDS011;30133;47.866;-4.222;2023-05-07T07:17:47;1.52;;;1.00;;
44426;SDS011;30133;47.866;-4.222;2023-05-07T07:20:14;3.25;;;1.15;;
44426;SDS011;30133;47.866;-4.222;2023-05-07T07:22:40;2.05;;;1.13;;
44426;SDS011;30133;47.866;-4.222;2023-05-07T07:25:06;0.77;;;0.55;;
44426;SDS011;30133;47.866;-4.222;2023-05-07T07:27:33;1.48;;;0.93;;
44426;SDS011;30133;47.866;-4.222;2023-05-07T07:30:00;1.05;;;0.98;;
44426;SDS011;30133;47.866;-4.222;2023-05-07T07:32:26;2.03;;;0.90;;
44426;SDS011;30133;47.866;-4.222;2023-05-07T07:34:52;1.42;;;0.95;;
44426;SDS011;30133;47.866;-4.222;2023-05-07T07:37:18;1.05;;;0.80;;
44426;SDS011;30133;47.866;-4.222;2023-05-07T07:39:45;1.40;;;1.00;;
44426;SDS011;30133;47.866;-4.222;2023-05-07T07:42:11;2.40;;;1.05;;
44426;SDS011;30133;47.866;-4.222;2023-05-07T07:44:37;1.13;;;0.93;;
44426;SDS011;30133;47.866;-4.222;2023-05-07T07:47:04;1.02;;;0.93;;
44426;SDS011;30133;47.866;-4.222;2023-05-07T07:49:31;1.15;;;0.95;;
44426;SDS011;30133;47.866;-4.222;2023-05-07T07:51:57;2.05;;;0.98;;
44426;SDS011;30133;47.866;-4.222;2023-05-07T07:54:24;1.92;;;1.20;;
44426;SDS011;30133;47.866;-4.222;2023-05-07T07:56:50;1.45;;;1.00;;
44426;SDS011;30133;47.866;-4.222;2023-05-07T07:59:17;0.90;;;0.80;;
44426;SDS011;30133;47.866;-4.222;2023-05-07T08:01:44;1.15;;;0.90;;
44426;SDS011;30133;47.866;-4.222;2023-05-07T08:04:11;0.90;;;0.80;;
44426;SDS011;30133;47.866;-4.222;2023-05-07T08:06:37;0.93;;;0.88;;
44426;SDS011;30133;47.866;-4.222;2023-05-07T08:09:03;1.38;;;0.85;;
44426;SDS011;30133;47.866;-4.222;2023-05-07T08:11:30;1.58;;;1.17;;
44426;SDS011;30133;47.866;-4.222;2023-05-07T08:13:56;1.55;;;0.90;;
44426;SDS011;30133;47.866;-4.222;2023-05-07T08:16:22;1.17;;;0.70;;
44426;SDS011;30133;47.866;-4.222;2023-05-07T08:18:49;0.98;;;0.90;;
44426;SDS011;30133;47.866;-4.222;2023-05-07T08:21:15;1.45;;;1.17;;
44426;SDS011;30133;47.866;-4.222;2023-05-07T08:23:41;1.10;;;0.98;;
44426;SDS011;30133;47.866;-4.222;2023-05-07T08:26:08;1.67;;;0.90;;
44426;SDS011;30133;47.866;-4.222;2023-05-07T08:28:35;1.33;;;0.90;;
44426;SDS011;30133;47.866;-4.222;2023-05-07T08:31:01;1.27;;;0.82;;
44426;SDS011;30133;47.866;-4.222;2023-05-07T08:33:27;1.35;;;0.85;;
44426;SDS011;30133;47.866;-4.222;2023-05-07T08:35:54;1.33;;;0.85;;
44426;SDS011;30133;47.866;-4.222;2023-05-07T08:38:20;1.83;;;1.13;;
44426;SDS011;30133;47.866;-4.222;2023-05-07T08:40:47;1.95;;;0.90;;
44426;SDS011;30133;47.866;-4.222;2023-05-07T08:43:13;1.33;;;0.70;;
44426;SDS011;30133;47.866;-4.222;2023-05-07T08:45:40;0.75;;;0.52;;
44426;SDS011;30133;47.866;-4.222;2023-05-07T08:48:15;0.95;;;0.85;;
44426;SDS011;30133;47.866;-4.222;2023-05-07T08:50:42;1.15;;;0.85;;
44426;SDS011;30133;47.866;-4.222;2023-05-07T08:53:08;0.85;;;0.73;;
44426;SDS011;30133;47.866;-4.222;2023-05-07T08:55:34;1.30;;;1.10;;
44426;SDS011;30133;47.866;-4.222;2023-05-07T08:58:01;2.95;;;0.95;;
44426;SDS011;30133;47.866;-4.222;2023-05-07T09:00:27;0.82;;;0.75;;
44426;SDS011;30133;47.866;-4.222;2023-05-07T09:02:54;0.93;;;0.70;;
44426;SDS011;30133;47.866;-4.222;2023-05-07T09:05:21;1.10;;;0.75;;
44426;SDS011;30133;47.866;-4.222;2023-05-07T09:07:47;1.60;;;0.70;;
44426;SDS011;30133;47.866;-4.222;2023-05-07T09:10:15;1.30;;;0.90;;
44426;SDS011;30133;47.866;-4.222;2023-05-07T09:12:41;0.82;;;0.70;;
44426;SDS011;30133;47.866;-4.222;2023-05-07T09:15:08;1.52;;;1.10;;
44426;SDS011;30133;47.866;-4.222;2023-05-07T09:17:34;2.03;;;1.35;;
44426;SDS011;30133;47.866;-4.222;2023-05-07T09:20:02;1.02;;;0.90;;
44426;SDS011;30133;47.866;-4.222;2023-05-07T09:22:33;1.13;;;0.88;;
44426;SDS011;30133;47.866;-4.222;2023-05-07T09:25:02;2.33;;;1.10;;
44426;SDS011;30133;47.866;-4.222;2023-05-07T09:27:28;0.85;;;0.77;;
44426;SDS011;30133;47.866;-4.222;2023-05-07T09:29:56;2.10;;;0.80;;
44426;SDS011;30133;47.866;-4.222;2023-05-07T09:32:22;2.00;;;0.90;;
44426;SDS011;30133;47.866;-4.222;2023-05-07T09:34:52;1.48;;;0.77;;
44426;SDS011;30133;47.866;-4.222;2023-05-07T09:37:19;0.75;;;0.75;;
44426;SDS011;30133;47.866;-4.222;2023-05-07T09:39:46;1.13;;;0.90;;
44426;SDS011;30133;47.866;-4.222;2023-05-07T09:42:13;1.08;;;0.70;;
44426;SDS011;30133;47.866;-4.222;2023-05-07T09:44:40;0.82;;;0.60;;
44426;SDS011;30133;47.866;-4.222;2023-05-07T09:47:08;1.83;;;1.10;;
44426;SDS011;30133;47.866;-4.222;2023-05-07T09:49:38;1.15;;;0.88;;
44426;SDS011;30133;47.866;-4.222;2023-05-07T09:52:07;1.17;;;1.00;;
44426;SDS011;30133;47.866;-4.222;2023-05-07T09:54:35;2.08;;;0.70;;
44426;SDS011;30133;47.866;-4.222;2023-05-07T09:57:05;0.80;;;0.80;;
44426;SDS011;30133;47.866;-4.222;2023-05-07T09:59:32;1.30;;;0.80;;
44426;SDS011;30133;47.866;-4.222;2023-05-07T10:01:59;1.27;;;0.77;;
44426;SDS011;30133;47.866;-4.222;2023-05-07T10:04:26;1.90;;;0.73;;
44426;SDS011;30133;47.866;-4.222;2023-05-07T10:06:52;0.90;;;0.88;;
44426;SDS011;30133;47.866;-4.222;2023-05-07T10:09:19;1.52;;;0.82;;
44426;SDS011;30133;47.866;-4.222;2023-05-07T10:11:45;0.85;;;0.60;;
44426;SDS011;30133;47.866;-4.222;2023-05-07T10:14:13;1.10;;;0.95;;
44426;SDS011;30133;47.866;-4.222;2023-05-07T10:16:40;1.92;;;1.00;;
44426;SDS011;30133;47.866;-4.222;2023-05-07T10:19:08;1.48;;;0.60;;
44426;SDS011;30133;47.866;-4.222;2023-05-07T10:21:37;1.23;;;0.80;;
44426;SDS011;30133;47.866;-4.222;2023-05-07T10:24:07;0.90;;;0.63;;
44426;SDS011;30133;47.866;-4.222;2023-05-07T10:26:39;2.83;;;0.90;;
44426;SDS011;30133;47.866;-4.222;2023-05-07T10:29:12;1.10;;;1.00;;
44426;SDS011;30133;47.866;-4.222;2023-05-07T10:34:48;1.52;;;1.00;;
44426;SDS011;30133;47.866;-4.222;2023-05-07T10:37:15;1.40;;;0.85;;
44426;SDS011;30133;47.866;-4.222;2023-05-07T10:39:41;1.10;;;0.80;;
44426;SDS011;30133;47.866;-4.222;2023-05-07T10:42:11;1.85;;;0.80;;
44426;SDS011;30133;47.866;-4.222;2023-05-07T10:44:38;1.27;;;1.02;;
44426;SDS011;30133;47.866;-4.222;2023-05-07T10:47:10;0.68;;;0.60;;
44426;SDS011;30133;47.866;-4.222;2023-05-07T10:52:23;0.98;;;0.82;;
44426;SDS011;30133;47.866;-4.222;2023-05-07T11:05:23;1.40;;;0.63;;
44426;SDS011;30133;47.866;-4.222;2023-05-07T11:19:03;0.93;;;0.60;;
44426;SDS011;30133;47.866;-4.222;2023-05-07T11:23:59;0.93;;;0.80;;
44426;SDS011;30133;47.866;-4.222;2023-05-07T11:26:27;0.75;;;0.75;;
44426;SDS011;30133;47.866;-4.222;2023-05-07T11:28:55;1.33;;;0.73;;
44426;SDS011;30133;47.866;-4.222;2023-05-07T11:31:25;1.38;;;1.10;;
44426;SDS011;30133;47.866;-4.222;2023-05-07T11:33:55;0.50;;;0.50;;
44426;SDS011;30133;47.866;-4.222;2023-05-07T11:36:22;0.80;;;0.77;;
44426;SDS011;30133;47.866;-4.222;2023-05-07T11:38:49;0.68;;;0.65;;
44426;SDS011;30133;47.866;-4.222;2023-05-07T11:41:15;0.88;;;0.60;;
44426;SDS011;30133;47.866;-4.222;2023-05-07T11:43:56;1.20;;;0.65;;
44426;SDS011;30133;47.866;-4.222;2023-05-07T11:46:23;2.63;;;0.70;;
44426;SDS011;30133;47.866;-4.222;2023-05-07T11:48:49;2.50;;;1.05;;
44426;SDS011;30133;47.866;-4.222;2023-05-07T11:51:19;0.52;;;0.50;;
44426;SDS011;30133;47.866;-4.222;2023-05-07T11:53:47;0.90;;;0.70;;
44426;SDS011;30133;47.866;-4.222;2023-05-07T11:56:14;0.90;;;0.73;;
44426;SDS011;30133;47.866;-4.222;2023-05-07T11:58:42;1.23;;;0.70;;
44426;SDS011;30133;47.866;-4.222;2023-05-07T12:01:10;0.52;;;0.52;;
44426;SDS011;30133;47.866;-4.222;2023-05-07T12:03:39;0.95;;;0.70;;
44426;SDS011;30133;47.866;-4.222;2023-05-07T12:06:10;0.93;;;0.80;;
44426;SDS011;30133;47.866;-4.222;2023-05-07T12:08:39;1.48;;;0.93;;
44426;SDS011;30133;47.866;-4.222;2023-05-07T12:11:15;1.05;;;0.70;;
44426;SDS011;30133;47.866;-4.222;2023-05-07T12:13:47;0.80;;;0.80;;
44426;SDS011;30133;47.866;-4.222;2023-05-07T12:16:14;1.00;;;0.80;;
44426;SDS011;30133;47.866;-4.222;2023-05-07T12:18:40;0.55;;;0.55;;
44426;SDS011;30133;47.866;-4.222;2023-05-07T12:21:07;1.73;;;1.00;;
44426;SDS011;30133;47.866;-4.222;2023-05-07T12:23:34;0.80;;;0.80;;
44426;SDS011;30133;47.866;-4.222;2023-05-07T12:26:01;1.35;;;0.77;;
44426;SDS011;30133;47.866;-4.222;2023-05-07T12:28:28;0.70;;;0.70;;
44426;SDS011;30133;47.866;-4.222;2023-05-07T12:30:55;0.95;;;0.80;;
44426;SDS011;30133;47.866;-4.222;2023-05-07T12:33:23;0.80;;;0.60;;
44426;SDS011;30133;47.866;-4.222;2023-05-07T12:35:52;0.85;;;0.70;;
44426;SDS011;30133;47.866;-4.222;2023-05-07T12:38:20;0.95;;;0.60;;
44426;SDS011;30133;47.866;-4.222;2023-05-07T12:40:47;0.77;;;0.70;;
44426;SDS011;30133;47.866;-4.222;2023-05-07T12:43:24;0.88;;;0.65;;
44426;SDS011;30133;47.866;-4.222;2023-05-07T12:45:56;2.00;;;0.80;;
44426;SDS011;30133;47.866;-4.222;2023-05-07T12:48:25;1.42;;;0.68;;
44426;SDS011;30133;47.866;-4.222;2023-05-07T12:50:54;1.35;;;0.73;;
44426;SDS011;30133;47.866;-4.222;2023-05-07T12:53:22;1.13;;;0.93;;
44426;SDS011;30133;47.866;-4.222;2023-05-07T12:55:51;1.40;;;0.88;;
44426;SDS011;30133;47.866;-4.222;2023-05-07T12:58:31;1.58;;;0.80;;
44426;SDS011;30133;47.866;-4.222;2023-05-07T13:01:00;0.80;;;0.60;;
44426;SDS011;30133;47.866;-4.222;2023-05-07T13:03:34;5.88;;;0.98;;
44426;SDS011;30133;47.866;-4.222;2023-05-07T13:06:07;1.85;;;0.65;;
44426;SDS011;30133;47.866;-4.222;2023-05-07T13:08:40;1.55;;;0.70;;
44426;SDS011;30133;47.866;-4.222;2023-05-07T13:11:10;0.77;;;0.50;;
44426;SDS011;30133;47.866;-4.222;2023-05-07T13:13:37;0.77;;;0.70;;
44426;SDS011;30133;47.866;-4.222;2023-05-07T13:16:05;1.35;;;0.82;;
44426;SDS011;30133;47.866;-4.222;2023-05-07T13:18:33;2.60;;;0.70;;
44426;SDS011;30133;47.866;-4.222;2023-05-07T13:21:02;0.90;;;0.70;;
44426;SDS011;30133;47.866;-4.222;2023-05-07T13:23:29;1.52;;;0.63;;
44426;SDS011;30133;47.866;-4.222;2023-05-07T13:25:55;1.52;;;0.60;;
44426;SDS011;30133;47.866;-4.222;2023-05-07T13:28:22;1.70;;;0.65;;
44426;SDS011;30133;47.866;-4.222;2023-05-07T13:30:49;0.73;;;0.50;;
44426;SDS011;30133;47.866;-4.222;2023-05-07T13:33:17;0.88;;;0.60;;
44426;SDS011;30133;47.866;-4.222;2023-05-07T13:35:49;0.68;;;0.68;;
44426;SDS011;30133;47.866;-4.222;2023-05-07T13:38:16;1.63;;;0.80;;
44426;SDS011;30133;47.866;-4.222;2023-05-07T13:40:43;1.80;;;0.85;;
44426;SDS011;30133;47.866;-4.222;2023-05-07T13:43:09;1.58;;;0.90;;
44426;SDS011;30133;47.866;-4.222;2023-05-07T13:45:35;0.45;;;0.40;;
44426;SDS011;30133;47.866;-4.222;2023-05-07T13:48:02;0.82;;;0.77;;
44426;SDS011;30133;47.866;-4.222;2023-05-07T13:50:28;4.75;;;2.38;;
44426;SDS011;30133;47.866;-4.222;2023-05-07T13:52:55;1.15;;;0.70;;
44426;SDS011;30133;47.866;-4.222;2023-05-07T13:55:22;2.00;;;0.85;;
44426;SDS011;30133;47.866;-4.222;2023-05-07T13:57:54;0.60;;;0.60;;
44426;SDS011;30133;47.866;-4.222;2023-05-07T14:00:21;1.08;;;0.70;;
44426;SDS011;30133;47.866;-4.222;2023-05-07T14:02:48;1.25;;;0.70;;
44426;SDS011;30133;47.866;-4.222;2023-05-07T14:05:15;0.65;;;0.65;;
44426;SDS011;30133;47.866;-4.222;2023-05-07T14:07:41;1.40;;;1.00;;
44426;SDS011;30133;47.866;-4.222;2023-05-07T14:10:07;0.60;;;0.50;;
44426;SDS011;30133;47.866;-4.222;2023-05-07T14:12:34;1.15;;;0.80;;
44426;SDS011;30133;47.866;-4.222;2023-05-07T14:15:00;1.23;;;0.80;;
44426;SDS011;30133;47.866;-4.222;2023-05-07T14:17:27;1.45;;;0.73;;
44426;SDS011;30133;47.866;-4.222;2023-05-07T14:19:54;0.93;;;0.80;;
44426;SDS011;30133;47.866;-4.222;2023-05-07T14:22:21;1.08;;;0.75;;
44426;SDS011;30133;47.866;-4.222;2023-05-07T14:24:47;2.55;;;0.63;;
44426;SDS011;30133;47.866;-4.222;2023-05-07T14:27:14;0.93;;;0.70;;
44426;SDS011;30133;47.866;-4.222;2023-05-07T14:29:41;0.65;;;0.57;;
44426;SDS011;30133;47.866;-4.222;2023-05-07T14:32:08;2.13;;;0.52;;
44426;SDS011;30133;47.866;-4.222;2023-05-07T14:34:34;2.53;;;1.00;;
44426;SDS011;30133;47.866;-4.222;2023-05-07T14:37:00;1.08;;;0.73;;
44426;SDS011;30133;47.866;-4.222;2023-05-07T14:39:27;1.17;;;0.73;;
44426;SDS011;30133;47.866;-4.222;2023-05-07T14:41:53;0.60;;;0.55;;
44426;SDS011;30133;47.866;-4.222;2023-05-07T14:44:21;0.98;;;0.85;;
44426;SDS011;30133;47.866;-4.222;2023-05-07T14:46:47;1.02;;;0.77;;
44426;SDS011;30133;47.866;-4.222;2023-05-07T14:49:14;0.85;;;0.60;;
44426;SDS011;30133;47.866;-4.222;2023-05-07T14:51:44;1.23;;;0.80;;
44426;SDS011;30133;47.866;-4.222;2023-05-07T14:54:10;0.60;;;0.60;;
44426;SDS011;30133;47.866;-4.222;2023-05-07T14:56:40;1.27;;;0.82;;
44426;SDS011;30133;47.866;-4.222;2023-05-07T14:59:06;1.33;;;0.85;;
44426;SDS011;30133;47.866;-4.222;2023-05-07T15:01:36;1.17;;;0.77;;
44426;SDS011;30133;47.866;-4.222;2023-05-07T15:04:05;4.85;;;1.17;;